^^
Saratoga-Weather Station Historical Data
Daily Summary for December 31, 2021 Units:  English    Metric   Both
Daily Weekly Monthly Yearly Custom
  High: Low: Average:
Temperature: 53.4 °F 42.3 °F 48.7 °F
Dew Point: 51.3 °F 41.2 °F 47.5 °F
Humidity: 98% 91% 95%
Wind Speed: 6mph 0mph 0.6mph
Wind Gust: 8mph - -
Wind- - SW
Pressure: 30.3 in 30.2 in -
Precipitation: 0 in    
Historical Graphs
 
 
Tabular Data for December 31, 2021
Time Temperature Dew Point Pressure Wind Wind Speed Wind Gust Humidity Rainfall Rate (Hourly) solar
00:04 52.2 °F 50.7 °F 30.2 in WSW 0.9 mph 2 mph 95% 0 in 0 W/m2
00:09 52.2 °F 51.1 °F 30.2 in Calm   1 mph 96% 0 in 0 W/m2
00:14 52.2 °F 50.7 °F 30.2 in Calm     95% 0 in 0 W/m2
00:19 52.2 °F 50.7 °F 30.2 in SE 0.9 mph 2 mph 95% 0 in 0 W/m2
00:24 52.2 °F 50.7 °F 30.2 in SE 2 mph 2 mph 95% 0 in 0 W/m2
00:29 52.2 °F 50.7 °F 30.2 in Calm     95% 0 in 0 W/m2
00:34 52.2 °F 50.7 °F 30.2 in SSE 2 mph 2 mph 95% 0 in 0 W/m2
00:39 52.2 °F 50.7 °F 30.2 in East 2 mph 2 mph 95% 0 in 0 W/m2
00:44 52.2 °F 50.7 °F 30.2 in Calm     95% 0 in 0 W/m2
00:49 52.2 °F 50.7 °F 30.2 in Calm     95% 0 in 0 W/m2
00:54 52.2 °F 50.7 °F 30.2 in Calm     95% 0 in 0 W/m2
01:00 52 °F 50.5 °F 30.2 in Calm     95% 0 in 0 W/m2
01:05 52 °F 50.5 °F 30.2 in Calm     95% 0 in 0 W/m2
01:10 52 °F 50.5 °F 30.2 in Calm   2 mph 95% 0 in 0 W/m2
01:15 52 °F 50.5 °F 30.2 in Calm     95% 0 in 0 W/m2
01:20 52 °F 50.5 °F 30.2 in East 0.9 mph 2 mph 95% 0 in 0 W/m2
01:25 52 °F 50.5 °F 30.2 in East 0.9 mph 3 mph 95% 0 in 0 W/m2
01:30 52.2 °F 50.7 °F 30.2 in ESE 2 mph 2 mph 95% 0 in 0 W/m2
01:35 52.3 °F 50.9 °F 30.2 in East 0.9 mph 3 mph 95% 0 in 0 W/m2
01:40 52.5 °F 51.1 °F 30.2 in Calm   5 mph 95% 0 in 0 W/m2
01:45 52.5 °F 51.1 °F 30.2 in SSW 0.9 mph 2 mph 95% 0 in 0 W/m2
01:50 52.7 °F 51.1 °F 30.2 in Calm   5 mph 94% 0 in 0 W/m2
01:55 52.9 °F 51.3 °F 30.2 in South 2 mph 2 mph 94% 0 in 0 W/m2
02:00 52.9 °F 51.3 °F 30.2 in South 0.9 mph 2 mph 94% 0 in 0 W/m2
02:05 53.1 °F 51.1 °F 30.2 in West 0.9 mph 4 mph 93% 0 in 0 W/m2
02:10 53.2 °F 51.3 °F 30.2 in WSW 2 mph 3 mph 93% 0 in 0 W/m2
02:15 53.2 °F 51.3 °F 30.2 in Calm   3 mph 93% 0 in 0 W/m2
02:20 53.4 °F 51.1 °F 30.2 in South 0.9 mph 4 mph 92% 0 in 0 W/m2
02:25 53.2 °F 50.9 °F 30.2 in SE 2.9 mph 3 mph 92% 0 in 0 W/m2
02:30 53.2 °F 50.9 °F 30.2 in SW 2 mph 2 mph 92% 0 in 0 W/m2
02:35 53.2 °F 50.9 °F 30.2 in Calm     92% 0 in 0 W/m2
02:40 53.2 °F 50.9 °F 30.2 in West 2 mph 2 mph 92% 0 in 0 W/m2
02:45 53.2 °F 50.7 °F 30.2 in NW 0.9 mph 2 mph 91% 0 in 0 W/m2
02:50 53.2 °F 50.7 °F 30.2 in West 0.9 mph 3 mph 91% 0 in 0 W/m2
02:55 53.2 °F 50.7 °F 30.2 in Calm   2 mph 91% 0 in 0 W/m2
03:00 53.1 °F 50.5 °F 30.2 in West 0.9 mph 3 mph 91% 0 in 0 W/m2
03:05 53.1 °F 50.5 °F 30.2 in Calm   4 mph 91% 0 in 0 W/m2
03:10 52.9 °F 50.5 °F 30.2 in Calm     92% 0 in 0 W/m2
03:15 52.9 °F 50.5 °F 30.2 in NNW 2 mph 4 mph 92% 0 in 0 W/m2
03:20 52.9 °F 50.5 °F 30.2 in WNW 2 mph 2 mph 92% 0 in 0 W/m2
03:25 52.7 °F 50.4 °F 30.2 in Calm     92% 0 in 0 W/m2
03:30 52.3 °F 49.8 °F 30.2 in Calm     91% 0 in 0 W/m2
03:35 52 °F 49.5 °F 30.2 in Calm   1 mph 91% 0 in 0 W/m2
03:40 51.4 °F 48.9 °F 30.2 in Calm     91% 0 in 0 W/m2
03:45 51.1 °F 48.9 °F 30.2 in Calm   1 mph 92% 0 in 0 W/m2
03:50 50.5 °F 48.4 °F 30.2 in Calm     92% 0 in 0 W/m2
03:55 50.2 °F 48 °F 30.2 in Calm     92% 0 in 0 W/m2
04:00 49.8 °F 47.8 °F 30.2 in Calm   1 mph 93% 0 in 0 W/m2
04:05 49.5 °F 47.5 °F 30.2 in Calm   1 mph 93% 0 in 0 W/m2
04:10 49.3 °F 47.3 °F 30.2 in Calm     93% 0 in 0 W/m2
04:15 49.3 °F 47.7 °F 30.2 in Calm     94% 0 in 0 W/m2
04:20 49.1 °F 47.5 °F 30.2 in Calm     94% 0 in 0 W/m2
04:25 48.9 °F 47.3 °F 30.2 in Calm   1 mph 94% 0 in 0 W/m2
04:30 48.6 °F 46.9 °F 30.2 in Calm     94% 0 in 0 W/m2
04:35 48.2 °F 46.6 °F 30.2 in Calm     94% 0 in 0 W/m2
04:40 47.8 °F 46.2 °F 30.2 in Calm     94% 0 in 0 W/m2
04:45 47.7 °F 46 °F 30.2 in Calm     94% 0 in 0 W/m2
04:50 47.5 °F 45.9 °F 30.2 in Calm     94% 0 in 0 W/m2
04:55 47.1 °F 45.5 °F 30.2 in WNW 0.9 mph 3 mph 94% 0 in 0 W/m2
05:01 46.9 °F 45.5 °F 30.2 in WNW 2 mph 2 mph 95% 0 in 0 W/m2
05:06 46.9 °F 45.5 °F 30.2 in Calm     95% 0 in 0 W/m2
05:11 46.9 °F 45.5 °F 30.2 in Calm     95% 0 in 0 W/m2
05:16 46.8 °F 45.3 °F 30.2 in Calm     95% 0 in 0 W/m2
05:21 46.6 °F 45.1 °F 30.2 in Calm     95% 0 in 0 W/m2
05:26 46.4 °F 45 °F 30.2 in Calm     95% 0 in 0 W/m2
05:31 46.2 °F 44.8 °F 30.2 in Calm     95% 0 in 0 W/m2
05:36 46 °F 44.6 °F 30.2 in Calm     95% 0 in 0 W/m2
05:41 45.9 °F 44.4 °F 30.2 in Calm     95% 0 in 0 W/m2
05:46 45.7 °F 44.4 °F 30.2 in Calm     95% 0 in 0 W/m2
05:51 45.7 °F 44.4 °F 30.2 in Calm     95% 0 in 0 W/m2
05:56 45.3 °F 44.1 °F 30.2 in Calm     95% 0 in 0 W/m2
06:01 45.3 °F 44.1 °F 30.2 in Calm     95% 0 in 0 W/m2
06:06 45.1 °F 43.9 °F 30.2 in Calm     95% 0 in 0 W/m2
06:11 45.1 °F 43.9 °F 30.2 in Calm     95% 0 in 0 W/m2
06:16 45 °F 43.9 °F 30.2 in Calm     96% 0 in 0 W/m2
06:21 45 °F 43.9 °F 30.2 in Calm     96% 0 in 0 W/m2
06:26 44.8 °F 43.5 °F 30.2 in Calm     95% 0 in 0 W/m2
06:31 44.6 °F 43.3 °F 30.2 in Calm     95% 0 in 0 W/m2
06:36 44.4 °F 43.3 °F 30.2 in Calm     96% 0 in 0 W/m2
06:41 44.4 °F 43.3 °F 30.2 in Calm     96% 0 in 0 W/m2
06:46 44.4 °F 43.3 °F 30.2 in Calm     96% 0 in 0 W/m2
06:51 44.4 °F 43.3 °F 30.2 in Calm     96% 0 in 0 W/m2
06:56 44.4 °F 43.3 °F 30.2 in Calm     96% 0 in 0 W/m2
07:01 44.2 °F 43.2 °F 30.2 in Calm     96% 0 in 0 W/m2
07:06 44.2 °F 43.2 °F 30.2 in Calm     96% 0 in 0 W/m2
07:11 44.1 °F 43 °F 30.2 in Calm     96% 0 in 0 W/m2
07:16 44.1 °F 43 °F 30.2 in Calm     96% 0 in 0 W/m2
07:21 44.1 °F 43 °F 30.2 in Calm     96% 0 in 0 W/m2
07:26 44.1 °F 43 °F 30.2 in Calm     96% 0 in 0 W/m2
07:31 44.2 °F 43.2 °F 30.2 in Calm     96% 0 in 0 W/m2
07:36 44.2 °F 43.2 °F 30.2 in Calm     96% 0 in 0 W/m2
07:41 44.2 °F 43.2 °F 30.2 in Calm     96% 0 in 0 W/m2
07:46 44.1 °F 43 °F 30.2 in Calm     96% 0 in 0 W/m2
07:51 43.9 °F 42.8 °F 30.2 in Calm     96% 0 in 0 W/m2
07:56 43.5 °F 42.4 °F 30.2 in Calm     96% 0 in 0 W/m2
08:01 43.3 °F 42.3 °F 30.2 in Calm     96% 0 in 0 W/m2
08:06 43.3 °F 42.3 °F 30.2 in Calm     96% 0 in 0 W/m2
08:11 43.2 °F 42.1 °F 30.2 in Calm     96% 0 in 0 W/m2
08:16 43 °F 41.9 °F 30.2 in Calm     96% 0 in 0 W/m2
08:21 42.8 °F 41.7 °F 30.2 in Calm     96% 0 in 0 W/m2
08:26 42.6 °F 41.5 °F 30.2 in Calm     96% 0 in 0 W/m2
08:31 42.8 °F 41.7 °F 30.2 in Calm     96% 0 in 0 W/m2
08:36 42.6 °F 41.5 °F 30.2 in Calm   1 mph 96% 0 in 5 W/m2
08:41 42.6 °F 41.5 °F 30.2 in Calm     96% 0 in 7 W/m2
08:46 42.4 °F 41.4 °F 30.2 in Calm     96% 0 in 12 W/m2
08:51 42.4 °F 41.4 °F 30.2 in Calm     96% 0 in 12 W/m2
08:56 42.4 °F 41.4 °F 30.2 in Calm     96% 0 in 11 W/m2
09:01 42.3 °F 41.2 °F 30.2 in Calm     96% 0 in 18 W/m2
09:06 42.3 °F 41.2 °F 30.2 in Calm     96% 0 in 23 W/m2
09:11 42.3 °F 41.5 °F 30.2 in Calm     97% 0 in 21 W/m2
09:16 42.4 °F 41.7 °F 30.2 in Calm     97% 0 in 14 W/m2
09:21 42.4 °F 41.7 °F 30.2 in Calm     97% 0 in 18 W/m2
09:37 42.4 °F 41.7 °F 30.2 in ESE 2 mph 3 mph 97% 0 in 25 W/m2
09:42 42.6 °F 41.9 °F 30.2 in ESE 0.9 mph 3 mph 97% 0 in 44 W/m2
10:02 42.8 °F 42.1 °F 30.2 in Calm   1 mph 97% 0 in 105 W/m2
10:12 43.2 °F 42.4 °F 30.2 in ESE 0.9 mph 3 mph 97% 0 in 83 W/m2
10:17 43.2 °F 42.4 °F 30.2 in SE 2 mph 4 mph 97% 0 in 109 W/m2
10:27 43.3 °F 42.6 °F 30.2 in East 2.9 mph 3 mph 97% 0 in 49 W/m2
10:32 43.3 °F 42.6 °F 30.2 in ESE 2.9 mph 3 mph 97% 0 in 53 W/m2
10:37 43.5 °F 42.8 °F 30.2 in ESE 0.9 mph 2 mph 97% 0 in 60 W/m2
10:52 44.1 °F 43.3 °F 30.2 in Calm     97% 0 in 84 W/m2
10:57 44.1 °F 43.3 °F 30.2 in Calm   2 mph 97% 0 in 70 W/m2
11:02 44.2 °F 43.5 °F 30.2 in Calm     97% 0 in 102 W/m2
11:07 44.2 °F 43.5 °F 30.2 in Calm   2 mph 97% 0 in 123 W/m2
11:12 44.4 °F 43.7 °F 30.2 in Calm   2 mph 97% 0 in 77 W/m2
11:17 44.6 °F 43.9 °F 30.2 in Calm     97% 0 in 79 W/m2
11:22 44.8 °F 44.1 °F 30.2 in ESE 0.9 mph 2 mph 97% 0 in 86 W/m2
11:27 45 °F 44.2 °F 30.2 in Calm   1 mph 97% 0 in 113 W/m2
11:32 45 °F 44.2 °F 30.2 in Calm     97% 0 in 109 W/m2
11:37 45.1 °F 44.4 °F 30.2 in Calm     97% 0 in 116 W/m2
11:42 45.3 °F 44.6 °F 30.2 in Calm     97% 0 in 135 W/m2
11:47 45.7 °F 45 °F 30.2 in North 2 mph 2 mph 97% 0 in 214 W/m2
11:52 46 °F 45.3 °F 30.2 in NW 0.9 mph 2 mph 97% 0 in 128 W/m2
11:57 46 °F 45.3 °F 30.2 in Calm   2 mph 97% 0 in 104 W/m2
12:02 46 °F 45.3 °F 30.2 in Calm   1 mph 97% 0 in 102 W/m2
12:07 46.2 °F 45.5 °F 30.2 in WNW 2 mph 2 mph 97% 0 in 146 W/m2
12:12 46.2 °F 45.5 °F 30.2 in Calm   1 mph 97% 0 in 146 W/m2
12:17 46.4 °F 45.7 °F 30.2 in Calm   2 mph 97% 0 in 134 W/m2
12:22 46.6 °F 45.9 °F 30.2 in Calm     97% 0 in 118 W/m2
12:27 46.9 °F 46.2 °F 30.2 in NNE 2 mph 2 mph 97% 0 in 105 W/m2
12:32 46.9 °F 46.2 °F 30.2 in Calm   1 mph 97% 0 in 118 W/m2
12:37 47.3 °F 46.6 °F 30.2 in Calm     97% 0 in 88 W/m2
12:42 47.5 °F 46.9 °F 30.2 in West 0.9 mph 3 mph 98% 0 in 67 W/m2
12:47 47.7 °F 46.9 °F 30.2 in Calm   1 mph 97% 0 in 91 W/m2
12:52 47.8 °F 46.9 °F 30.2 in ESE 2 mph 2 mph 97% 0 in 107 W/m2
12:57 48 °F 47.5 °F 30.2 in Calm     98% 0 in 153 W/m2
13:02 48.4 °F 47.8 °F 30.2 in NE 0.9 mph 3 mph 98% 0 in 97 W/m2
13:07 48.6 °F 47.7 °F 30.2 in Calm   2 mph 97% 0 in 86 W/m2
13:12 48.7 °F 48.2 °F 30.2 in Calm   3 mph 98% 0 in 120 W/m2
13:17 48.7 °F 48.2 °F 30.2 in ENE 0.9 mph 4 mph 98% 0 in 40 W/m2
13:22 48.9 °F 48 °F 30.2 in West 0.9 mph 1 mph 97% 0 in 46 W/m2
13:27 48.9 °F 48 °F 30.2 in Calm   4 mph 97% 0 in 37 W/m2
13:32 48.9 °F 48 °F 30.2 in Calm   1 mph 97% 0 in 39 W/m2
13:37 49.3 °F 48.7 °F 30.2 in North 0.9 mph 2 mph 98% 0 in 28 W/m2
13:42 49.3 °F 48.4 °F 30.2 in NE 2 mph 2 mph 97% 0 in 25 W/m2
13:47 49.5 °F 48.6 °F 30.2 in Calm   1 mph 97% 0 in 30 W/m2
13:52 49.5 °F 48.6 °F 30.2 in Calm   4 mph 97% 0 in 25 W/m2
13:57 49.5 °F 48.6 °F 30.2 in Calm     97% 0 in 26 W/m2
14:02 49.5 °F 48.6 °F 30.2 in Calm   3 mph 97% 0 in 25 W/m2
14:07 49.5 °F 48.6 °F 30.2 in Calm     97% 0 in 23 W/m2
14:12 49.5 °F 48.6 °F 30.2 in WNW 2.9 mph 4 mph 97% 0 in 26 W/m2
14:17 49.6 °F 48.7 °F 30.2 in Calm   2 mph 97% 0 in 21 W/m2
14:22 49.6 °F 48.7 °F 30.2 in Calm   2 mph 97% 0 in 21 W/m2
14:27 49.5 °F 48.4 °F 30.2 in WNW 0.9 mph 2 mph 96% 0 in 21 W/m2
14:32 49.8 °F 48.7 °F 30.2 in WNW 0.9 mph 2 mph 96% 0 in 21 W/m2
14:37 50.2 °F 49.3 °F 30.2 in NNE 2 mph 2 mph 97% 0 in 21 W/m2
14:42 50.2 °F 49.1 °F 30.2 in Calm   2 mph 96% 0 in 21 W/m2
14:47 50.2 °F 49.1 °F 30.2 in Calm   2 mph 96% 0 in 25 W/m2
14:52 50.2 °F 49.1 °F 30.2 in Calm   1 mph 96% 0 in 23 W/m2
14:57 50.4 °F 49.3 °F 30.2 in East 2.9 mph 3 mph 96% 0 in 21 W/m2
15:02 50.5 °F 49.5 °F 30.2 in Calm   3 mph 96% 0 in 21 W/m2
15:07 50.5 °F 49.1 °F 30.2 in Calm     95% 0 in 25 W/m2
15:12 50.5 °F 49.1 °F 30.2 in Calm   2 mph 95% 0 in 28 W/m2
15:17 50.5 °F 49.1 °F 30.2 in WNW 0.9 mph 4 mph 95% 0 in 21 W/m2
15:22 50.5 °F 49.1 °F 30.2 in Calm   2 mph 95% 0 in 21 W/m2
15:27 50.7 °F 49.3 °F 30.2 in Calm   4 mph 95% 0 in 19 W/m2
15:32 51.1 °F 49.5 °F 30.2 in Calm     94% 0 in 23 W/m2
15:37 51.1 °F 49.5 °F 30.2 in Calm     94% 0 in 18 W/m2
15:42 50.7 °F 49.1 °F 30.2 in Calm     94% 0 in 18 W/m2
15:47 50.7 °F 49.1 °F 30.2 in Calm   1 mph 94% 0 in 16 W/m2
15:52 50.5 °F 48.9 °F 30.2 in Calm   1 mph 94% 0 in 16 W/m2
15:58 50.4 °F 48.7 °F 30.2 in NE 0.9 mph 2 mph 94% 0 in 14 W/m2
16:03 50.2 °F 48.6 °F 30.2 in SE 0.9 mph 2 mph 94% 0 in 14 W/m2
16:08 50 °F 48.4 °F 30.2 in Calm   1 mph 94% 0 in 12 W/m2
16:13 49.8 °F 48.2 °F 30.2 in Calm     94% 0 in 12 W/m2
16:18 49.6 °F 48 °F 30.2 in Calm   1 mph 94% 0 in 11 W/m2
16:23 49.5 °F 47.8 °F 30.2 in Calm     94% 0 in 11 W/m2
16:28 49.3 °F 47.7 °F 30.2 in SE 0.9 mph 1 mph 94% 0 in 11 W/m2
16:33 49.1 °F 47.5 °F 30.2 in Calm   2 mph 94% 0 in 9 W/m2
16:38 48.9 °F 47.3 °F 30.2 in Calm   1 mph 94% 0 in 7 W/m2
16:43 48.9 °F 47.5 °F 30.2 in Calm   1 mph 95% 0 in 5 W/m2
16:48 48.7 °F 47.3 °F 30.2 in Calm     95% 0 in 0 W/m2
16:53 48.7 °F 47.3 °F 30.2 in Calm     95% 0 in 0 W/m2
16:58 48.6 °F 47.1 °F 30.2 in Calm     95% 0 in 0 W/m2
17:03 48.6 °F 47.1 °F 30.2 in Calm     95% 0 in 0 W/m2
17:08 48.4 °F 46.9 °F 30.2 in Calm     95% 0 in 0 W/m2
17:13 48.4 °F 46.9 °F 30.2 in Calm     95% 0 in 0 W/m2
17:18 48.2 °F 46.8 °F 30.2 in Calm     95% 0 in 0 W/m2
17:23 48.4 °F 46.9 °F 30.2 in East 2 mph 3 mph 95% 0 in 0 W/m2
17:28 48.4 °F 47.3 °F 30.2 in Calm     96% 0 in 0 W/m2
17:33 48.2 °F 46.8 °F 30.2 in Calm   2 mph 95% 0 in 0 W/m2
17:38 48 °F 46.6 °F 30.2 in Calm     95% 0 in 0 W/m2
17:43 48.2 °F 47.1 °F 30.2 in Calm   1 mph 96% 0 in 0 W/m2
17:48 48.2 °F 47.1 °F 30.2 in Calm     96% 0 in 0 W/m2
17:53 48 °F 46.9 °F 30.2 in Calm   1 mph 96% 0 in 0 W/m2
17:58 47.8 °F 46.4 °F 30.2 in Calm     95% 0 in 0 W/m2
18:03 47.7 °F 46.2 °F 30.2 in Calm     95% 0 in 0 W/m2
18:08 47.5 °F 46.4 °F 30.2 in Calm   2 mph 96% 0 in 0 W/m2
18:13 48 °F 46.9 °F 30.2 in Calm   3 mph 96% 0 in 0 W/m2
18:18 48.4 °F 47.3 °F 30.2 in East 2.9 mph 3 mph 96% 0 in 0 W/m2
18:23 48.6 °F 47.5 °F 30.2 in Calm   1 mph 96% 0 in 0 W/m2
18:28 49.1 °F 48 °F 30.2 in WNW 0.9 mph 2 mph 96% 0 in 0 W/m2
18:33 49.5 °F 48.4 °F 30.2 in NW 0.9 mph 4 mph 96% 0 in 0 W/m2
18:38 49.8 °F 48.7 °F 30.2 in ENE 2.9 mph 3 mph 96% 0 in 0 W/m2
18:43 50.2 °F 49.1 °F 30.2 in Calm   1 mph 96% 0 in 0 W/m2
18:48 50.4 °F 49.3 °F 30.2 in East 2 mph 4 mph 96% 0 in 0 W/m2
18:53 50.5 °F 49.1 °F 30.2 in Calm   2 mph 95% 0 in 0 W/m2
18:58 50.5 °F 49.1 °F 30.2 in Calm   4 mph 95% 0 in 0 W/m2
19:03 50.5 °F 49.1 °F 30.2 in Calm   1 mph 95% 0 in 0 W/m2
19:08 50.5 °F 49.1 °F 30.2 in Calm   5 mph 95% 0 in 0 W/m2
19:13 50.7 °F 49.3 °F 30.2 in Calm   2 mph 95% 0 in 0 W/m2
19:18 50.9 °F 49.3 °F 30.2 in NNW 0.9 mph 5 mph 94% 0 in 0 W/m2
19:23 50.9 °F 49.3 °F 30.2 in NNW 2 mph 3 mph 94% 0 in 0 W/m2
19:28 51.1 °F 49.5 °F 30.2 in WSW 2 mph 3 mph 94% 0 in 0 W/m2
19:33 51.1 °F 49.5 °F 30.3 in NW 2.9 mph 7 mph 94% 0 in 0 W/m2
19:38 51.3 °F 49.3 °F 30.3 in West 2.9 mph 6 mph 93% 0 in 0 W/m2
19:43 51.3 °F 49.3 °F 30.3 in Calm   1 mph 93% 0 in 0 W/m2
19:48 51.3 °F 49.3 °F 30.3 in West 2 mph   93% 0 in 0 W/m2
19:53 51.3 °F 49.3 °F 30.3 in West 6 mph 6 mph 93% 0 in 0 W/m2
19:58 51.3 °F 49.3 °F 30.3 in West 0.9 mph 3 mph 93% 0 in 0 W/m2
20:03 51.4 °F 49.5 °F 30.3 in Calm   3 mph 93% 0 in 0 W/m2
20:08 51.4 °F 49.5 °F 30.3 in WSW 2.9 mph 3 mph 93% 0 in 0 W/m2
20:13 51.4 °F 49.5 °F 30.3 in West 2 mph 2 mph 93% 0 in 0 W/m2
20:18 51.4 °F 49.5 °F 30.3 in East 2.9 mph 3 mph 93% 0 in 0 W/m2
20:23 51.4 °F 49.5 °F 30.3 in Calm   2 mph 93% 0 in 0 W/m2
20:28 51.4 °F 49.5 °F 30.3 in NW 2 mph 4 mph 93% 0 in 0 W/m2
20:33 51.4 °F 49.5 °F 30.3 in WNW 2.9 mph 8 mph 93% 0 in 0 W/m2
20:38 51.4 °F 49.5 °F 30.3 in West 2 mph 4 mph 93% 0 in 0 W/m2
20:43 51.4 °F 49.5 °F 30.3 in NNE 2 mph 2 mph 93% 0 in 0 W/m2
20:48 51.4 °F 49.5 °F 30.3 in NW 0.9 mph 4 mph 93% 0 in 0 W/m2
20:54 51.4 °F 49.5 °F 30.3 in WNW 2 mph 2 mph 93% 0 in 0 W/m2
20:59 51.4 °F 49.5 °F 30.3 in WNW 2 mph 3 mph 93% 0 in 0 W/m2
21:04 51.4 °F 49.8 °F 30.3 in NW 2.9 mph 3 mph 94% 0 in 0 W/m2
21:09 51.4 °F 49.8 °F 30.3 in WNW 2 mph 3 mph 94% 0 in 0 W/m2
21:14 51.4 °F 49.8 °F 30.3 in WSW 4 mph 5 mph 94% 0 in 0 W/m2
21:19 51.4 °F 49.8 °F 30.3 in West 0.9 mph 4 mph 94% 0 in 0 W/m2
21:24 51.4 °F 49.8 °F 30.3 in North 0.9 mph 3 mph 94% 0 in 0 W/m2
21:29 51.4 °F 49.8 °F 30.3 in Calm   2 mph 94% 0 in 0 W/m2
21:34 51.4 °F 49.8 °F 30.3 in Calm   3 mph 94% 0 in 0 W/m2
21:39 51.4 °F 49.8 °F 30.3 in WSW 2 mph 4 mph 94% 0 in 0 W/m2
21:44 51.4 °F 49.8 °F 30.3 in West 2.9 mph 3 mph 94% 0 in 0 W/m2
21:49 51.4 °F 49.8 °F 30.3 in West 6 mph 6 mph 94% 0 in 0 W/m2
21:54 51.4 °F 49.8 °F 30.3 in WNW 0.9 mph 3 mph 94% 0 in 0 W/m2
21:59 51.4 °F 49.8 °F 30.3 in West 0.9 mph 5 mph 94% 0 in 0 W/m2
22:04 51.4 °F 49.8 °F 30.3 in WNW 2 mph 3 mph 94% 0 in 0 W/m2
22:09 51.4 °F 50 °F 30.3 in Calm   6 mph 95% 0 in 0 W/m2
22:14 51.4 °F 50 °F 30.3 in Calm   6 mph 95% 0 in 0 W/m2
22:19 51.4 °F 50 °F 30.3 in WNW 2.9 mph 3 mph 95% 0 in 0 W/m2
22:24 51.4 °F 50 °F 30.3 in West 2 mph 6 mph 95% 0 in 0 W/m2
22:29 51.4 °F 50 °F 30.3 in WNW 2 mph 6 mph 95% 0 in 0 W/m2
22:34 51.4 °F 50 °F 30.3 in NNE 2 mph 3 mph 95% 0 in 0 W/m2
22:39 51.4 °F 50 °F 30.3 in SSW 2 mph 4 mph 95% 0 in 0 W/m2
22:44 51.4 °F 50 °F 30.3 in South 2 mph 3 mph 95% 0 in 0 W/m2
22:49 51.3 °F 49.8 °F 30.3 in Calm   1 mph 95% 0 in 0 W/m2
22:54 51.3 °F 49.8 °F 30.3 in Calm   2 mph 95% 0 in 0 W/m2
22:59 51.3 °F 49.8 °F 30.3 in NW 2 mph 2 mph 95% 0 in 0 W/m2
23:04 51.1 °F 49.5 °F 30.3 in WNW 2 mph 3 mph 94% 0 in 0 W/m2
23:09 51.1 °F 49.5 °F 30.3 in NW 0.9 mph 7 mph 94% 0 in 0 W/m2
23:14 51.1 °F 49.6 °F 30.3 in WNW 2.9 mph 5 mph 95% 0 in 0 W/m2
23:19 51.3 °F 49.8 °F 30.3 in NW 0.9 mph 4 mph 95% 0 in 0 W/m2
23:24 51.3 °F 49.8 °F 30.3 in Calm     95% 0 in 0 W/m2
23:29 51.1 °F 49.5 °F 30.3 in Calm   3 mph 94% 0 in 0 W/m2
23:34 51.1 °F 49.5 °F 30.3 in Calm   3 mph 94% 0 in 0 W/m2
23:39 51.1 °F 49.5 °F 30.3 in Calm   1 mph 94% 0 in 0 W/m2
23:44 51.1 °F 49.5 °F 30.3 in Calm   3 mph 94% 0 in 0 W/m2
23:49 51.1 °F 49.6 °F 30.3 in Calm   2 mph 95% 0 in 0 W/m2
23:54 51.1 °F 49.6 °F 30.3 in SW 2 mph 4 mph 95% 0 in 0 W/m2
23:59 51.1 °F 49.6 °F 30.3 in West 0.9 mph 2 mph 95% 0 in 0 W/m2
Juneau County Weather
Compliments of Weather Underground - 2 mb